Time;durP1;ratioP1;P1;durP2;ratioP2;P2;SDS_P1;SDS_P2;PMS_P1;PMS_P2;Temp;Humidity;BMP_temperature;BMP_pressure;BME280_temperature;BME280_humidity;BME280_pressure;Samples;Min_cycle;Max_cycle;Signal;HPM_P1;HPM_P2
2023/01/15 00:01:23;;;;;;;11.52;1.52;;;6.70;99.90;;;;;;5069040;28;20446;-65
2023/01/15 00:03:49;;;;;;;9.70;1.67;;;6.60;99.90;;;;;;5068041;28;20085;-68
2023/01/15 00:06:15;;;;;;;9.80;1.50;;;6.70;99.90;;;;;;5068322;28;20052;-65
2023/01/15 00:08:41;;;;;;;8.60;1.50;;;6.60;99.90;;;;;;5065645;28;20449;-65
2023/01/15 00:11:07;;;;;;;8.27;1.25;;;6.70;99.90;;;;;;5062592;28;20086;-67
2023/01/15 00:13:33;;;;;;;10.63;1.30;;;6.70;99.90;;;;;;5068382;28;20120;-68
2023/01/15 00:16:07;;;;;;;8.38;1.75;;;6.70;99.90;;;;;;5068273;28;20388;-66
2023/01/15 00:18:33;;;;;;;7.40;1.35;;;6.70;99.90;;;;;;5066479;28;20036;-66
2023/01/15 00:21:03;;;;;;;9.30;1.02;;;6.70;99.90;;;;;;5067952;28;20059;-66
2023/01/15 00:29:02;;;;;;;11.98;1.38;;;6.60;99.90;;;;;;5066330;28;20098;-67
2023/01/15 00:31:30;;;;;;;7.65;1.40;;;6.70;99.90;;;;;;5068315;28;20049;-67
2023/01/15 00:33:56;;;;;;;12.20;1.77;;;6.70;99.90;;;;;;5067919;28;20048;-66
2023/01/15 00:36:22;;;;;;;8.82;1.85;;;6.60;99.90;;;;;;5068125;28;20154;-69
2023/01/15 00:38:47;;;;;;;6.32;1.20;;;6.60;99.90;;;;;;5071122;28;20123;-65
2023/01/15 00:41:13;;;;;;;8.93;2.05;;;6.70;99.90;;;;;;5070276;28;20448;-66
2023/01/15 00:43:39;;;;;;;10.57;1.70;;;6.70;99.90;;;;;;5071436;28;20399;-67
2023/01/15 00:46:07;;;;;;;14.10;2.22;;;6.60;99.90;;;;;;5071290;28;20124;-65
2023/01/15 00:48:33;;;;;;;8.93;1.48;;;6.60;99.90;;;;;;5071719;28;20059;-64
2023/01/15 00:50:59;;;;;;;14.93;2.30;;;6.60;99.90;;;;;;5068014;28;20032;-65
2023/01/15 00:53:25;;;;;;;11.77;1.70;;;6.60;99.90;;;;;;5071566;28;20550;-67
2023/01/15 00:55:50;;;;;;;9.60;1.40;;;6.60;99.90;;;;;;5071637;28;20044;-67
2023/01/15 00:58:16;;;;;;;8.40;1.50;;;6.60;99.90;;;;;;5071918;28;20171;-68
2023/01/15 01:00:41;;;;;;;9.00;1.40;;;6.60;99.90;;;;;;5070467;28;20032;-70
2023/01/15 01:03:07;;;;;;;10.95;1.60;;;6.60;99.90;;;;;;5070900;28;20040;-67
2023/01/15 01:05:33;;;;;;;10.48;1.75;;;6.60;99.90;;;;;;5071292;28;20507;-68
2023/01/15 01:07:59;;;;;;;9.52;2.03;;;6.60;99.90;;;;;;5071234;28;20110;-68
2023/01/15 01:10:26;;;;;;;7.88;1.27;;;6.60;99.90;;;;;;5054595;28;20044;-67
2023/01/15 01:12:52;;;;;;;9.80;1.70;;;6.60;99.90;;;;;;5069361;28;20045;-66
2023/01/15 01:15:21;;;;;;;10.98;1.50;;;6.60;99.90;;;;;;5071155;28;20457;-65
2023/01/15 01:17:48;;;;;;;11.48;1.55;;;6.60;99.90;;;;;;5071210;28;20052;-67
2023/01/15 01:20:15;;;;;;;10.07;1.30;;;6.60;99.90;;;;;;5070846;28;20090;-64
2023/01/15 01:22:41;;;;;;;8.43;1.20;;;6.60;99.90;;;;;;5053762;28;20076;-66
2023/01/15 01:25:08;;;;;;;11.18;1.60;;;6.60;99.90;;;;;;5070483;28;20052;-65
2023/01/15 01:27:34;;;;;;;7.57;1.23;;;6.60;99.90;;;;;;5070744;28;20376;-64
2023/01/15 01:29:59;;;;;;;11.20;1.30;;;6.50;99.90;;;;;;5070735;28;20068;-65
2023/01/15 01:32:25;;;;;;;13.77;5.80;;;6.60;99.90;;;;;;5069941;28;20036;-65
2023/01/15 01:34:51;;;;;;;11.48;2.35;;;6.60;99.90;;;;;;5054426;28;20049;-68
2023/01/15 01:37:17;;;;;;;11.25;1.52;;;6.50;99.90;;;;;;5070296;28;20127;-66
2023/01/15 01:39:42;;;;;;;12.57;1.85;;;6.50;99.90;;;;;;5070582;28;20147;-66
2023/01/15 01:42:15;;;;;;;11.60;1.40;;;6.50;99.90;;;;;;5071646;28;20467;-67
2023/01/15 01:44:43;;;;;;;6.00;1.95;;;6.50;99.90;;;;;;5068457;28;20040;-66
2023/01/15 01:47:19;;;;;;;10.35;2.15;;;6.50;99.90;;;;;;5069739;28;20051;-65
2023/01/15 01:49:47;;;;;;;10.07;1.23;;;6.50;99.90;;;;;;5069365;28;20037;-69
2023/01/15 01:52:18;;;;;;;15.07;1.67;;;6.50;99.90;;;;;;5070311;28;20051;-67
2023/01/15 01:54:46;;;;;;;14.20;1.85;;;6.50;99.90;;;;;;5052129;28;20097;-65
2023/01/15 01:57:13;;;;;;;9.88;1.30;;;6.50;99.90;;;;;;5070175;28;20044;-67
2023/01/15 01:59:39;;;;;;;13.05;2.38;;;6.50;99.90;;;;;;5069804;28;20115;-67
2023/01/15 02:02:05;;;;;;;10.13;1.90;;;6.40;99.90;;;;;;5070491;28;20040;-66
2023/01/15 02:04:31;;;;;;;9.57;1.30;;;6.50;99.90;;;;;;5067862;28;20487;-66
2023/01/15 02:06:59;;;;;;;10.52;1.90;;;6.40;99.90;;;;;;5069950;28;20053;-65
2023/01/15 02:09:25;;;;;;;14.77;1.67;;;6.40;99.90;;;;;;5069624;28;20039;-64
2023/01/15 02:11:55;;;;;;;10.93;2.25;;;6.40;99.90;;;;;;5068644;28;20267;-65
2023/01/15 02:14:35;;;;;;;9.18;1.85;;;6.40;99.90;;;;;;5069604;28;20544;-64
2023/01/15 02:17:16;;;;;;;7.10;1.50;;;6.40;99.90;;;;;;5070373;28;20036;-66
2023/01/15 02:20:01;;;;;;;13.20;1.92;;;6.40;99.90;;;;;;5053217;28;20050;-67
2023/01/15 02:22:43;;;;;;;13.27;2.33;;;6.40;99.90;;;;;;5050472;28;20131;-66
2023/01/15 02:25:41;;;;;;;10.18;1.50;;;6.40;99.90;;;;;;5068416;28;20120;-67
2023/01/15 02:28:15;;;;;;;13.88;2.25;;;6.40;99.90;;;;;;4996078;28;20107;-67
2023/01/15 02:30:46;;;;;;;10.80;2.13;;;6.40;99.90;;;;;;5028356;28;20056;-66
2023/01/15 02:33:25;;;;;;;13.70;1.83;;;6.40;99.90;;;;;;5010668;28;20072;-66
2023/01/15 02:35:59;;;;;;;12.02;2.00;;;6.40;99.90;;;;;;5011732;28;20084;-63
2023/01/15 02:38:29;;;;;;;10.82;1.90;;;6.40;99.90;;;;;;5011942;28;20060;-67
2023/01/15 02:40:58;;;;;;;12.23;1.88;;;6.40;99.90;;;;;;5010070;28;20113;-65
2023/01/15 02:43:26;;;;;;;8.95;1.48;;;6.40;99.90;;;;;;5007613;28;20101;-65
2023/01/15 02:45:54;;;;;;;12.13;2.20;;;6.40;99.90;;;;;;5011910;28;20043;-65
2023/01/15 02:48:24;;;;;;;6.32;1.52;;;6.40;99.90;;;;;;5011946;28;20043;-66
2023/01/15 02:50:55;;;;;;;12.13;2.05;;;6.40;99.90;;;;;;4994864;28;20132;-66
2023/01/15 02:53:25;;;;;;;16.27;2.45;;;6.30;99.90;;;;;;5028516;28;20535;-67
2023/01/15 02:55:55;;;;;;;12.07;1.40;;;6.30;99.90;;;;;;5010395;28;20049;-66
2023/01/15 02:58:25;;;;;;;9.30;1.50;;;6.30;99.90;;;;;;5011720;28;20411;-64
2023/01/15 03:00:55;;;;;;;11.80;1.90;;;6.30;99.90;;;;;;5023807;28;20120;-65
2023/01/15 03:03:59;;;;;;;11.43;1.90;;;6.30;99.90;;;;;;5029107;28;20059;-68
2023/01/15 03:06:40;;;;;;;16.30;1.83;;;6.30;99.90;;;;;;5067291;28;20052;-64
2023/01/15 03:09:06;;;;;;;11.73;2.10;;;6.30;99.90;;;;;;5069279;28;20045;-67
2023/01/15 03:11:43;;;;;;;13.10;2.58;;;6.30;99.90;;;;;;5069162;28;20511;-64
2023/01/15 03:14:19;;;;;;;15.52;2.55;;;6.30;99.90;;;;;;5069169;28;20123;-69
2023/01/15 03:16:51;;;;;;;11.02;1.75;;;6.30;99.90;;;;;;5067642;28;20055;-65
2023/01/15 03:19:46;;;;;;;9.85;1.70;;;6.30;99.90;;;;;;5068982;28;20045;-67
2023/01/15 03:22:44;;;;;;;13.38;2.67;;;6.30;99.90;;;;;;5068792;28;20048;-68
2023/01/15 03:25:17;;;;;;;11.50;1.92;;;6.30;99.90;;;;;;5010789;28;20087;-68
2023/01/15 03:27:43;;;;;;;10.95;2.30;;;6.40;99.90;;;;;;5025734;28;20033;-66
2023/01/15 03:30:13;;;;;;;13.00;2.05;;;6.30;99.90;;;;;;5011454;28;20050;-65
2023/01/15 03:32:39;;;;;;;14.27;2.67;;;6.30;99.90;;;;;;5011014;28;20064;-64
2023/01/15 03:35:06;;;;;;;13.25;2.47;;;6.30;99.90;;;;;;5010980;28;20045;-67
2023/01/15 03:37:32;;;;;;;9.23;1.92;;;6.30;99.90;;;;;;5009784;28;20041;-70
2023/01/15 03:39:58;;;;;;;11.77;1.90;;;6.30;99.90;;;;;;5010903;28;20446;-65
2023/01/15 03:42:46;;;;;;;9.65;1.60;;;6.30;99.90;;;;;;5011116;28;20052;-66
2023/01/15 03:45:21;;;;;;;11.82;1.85;;;6.30;99.90;;;;;;5026483;28;20056;-66
2023/01/15 03:48:06;;;;;;;13.25;2.40;;;6.30;99.90;;;;;;5025779;28;20096;-65
2023/01/15 03:50:43;;;;;;;11.35;2.03;;;6.30;99.90;;;;;;5011086;28;20037;-68
2023/01/15 03:53:20;;;;;;;15.45;2.88;;;6.30;99.90;;;;;;5010901;28;20045;-65
2023/01/15 03:56:11;;;;;;;16.10;2.33;;;6.20;99.90;;;;;;5011286;28;20060;-67
2023/01/15 03:59:02;;;;;;;12.02;1.38;;;6.20;99.90;;;;;;5009567;28;20041;-66
2023/01/15 04:01:37;;;;;;;12.90;2.30;;;6.10;99.90;;;;;;5043698;28;20087;-68
2023/01/15 04:04:05;;;;;;;12.27;1.65;;;6.20;99.90;;;;;;5069480;28;20094;-67
2023/01/15 04:06:34;;;;;;;10.88;1.70;;;6.20;99.90;;;;;;5068592;28;20494;-68
2023/01/15 04:09:05;;;;;;;11.32;1.90;;;6.10;99.90;;;;;;5067813;28;20044;-65
2023/01/15 04:11:30;;;;;;;12.35;1.88;;;6.10;99.90;;;;;;5068533;28;20059;-66
2023/01/15 04:13:56;;;;;;;10.13;1.75;;;6.10;99.90;;;;;;5072228;28;20056;-65
2023/01/15 04:16:27;;;;;;;10.18;1.60;;;6.10;99.90;;;;;;5068708;28;20123;-66
2023/01/15 04:18:53;;;;;;;10.40;1.50;;;6.10;99.90;;;;;;5054824;28;20513;-67
2023/01/15 04:21:19;;;;;;;12.40;1.80;;;6.10;99.90;;;;;;5072014;28;20119;-64
2023/01/15 04:23:45;;;;;;;12.63;1.65;;;6.10;99.90;;;;;;5072173;28;20048;-64
2023/01/15 04:26:11;;;;;;;16.08;2.13;;;6.20;99.90;;;;;;5071953;28;20040;-65
2023/01/15 04:28:37;;;;;;;16.42;2.22;;;6.10;99.90;;;;;;5071998;28;20028;-65
2023/01/15 04:31:03;;;;;;;15.20;1.73;;;6.20;99.90;;;;;;5070643;28;20139;-66
2023/01/15 04:33:28;;;;;;;15.13;1.65;;;6.10;99.90;;;;;;5071824;28;20024;-64
2023/01/15 04:35:54;;;;;;;10.15;1.83;;;6.10;99.90;;;;;;5071832;28;20087;-68
2023/01/15 04:38:19;;;;;;;13.50;2.53;;;6.10;99.90;;;;;;5071488;28;20044;-64
2023/01/15 04:46:14;;;;;;;10.30;1.73;;;6.10;99.90;;;;;;5071277;28;20078;-65
2023/01/15 04:48:39;;;;;;;12.57;1.58;;;6.10;99.90;;;;;;5071665;28;20044;-65
2023/01/15 04:51:06;;;;;;;8.25;1.33;;;6.10;99.90;;;;;;5071196;28;20040;-65
2023/01/15 04:53:32;;;;;;;12.23;2.28;;;6.10;99.90;;;;;;5072648;28;20406;-68
2023/01/15 04:56:03;;;;;;;14.00;2.03;;;6.00;99.90;;;;;;5071433;28;20055;-64
2023/01/15 04:58:29;;;;;;;10.73;1.40;;;6.00;99.90;;;;;;5071420;28;20562;-65
2023/01/15 05:00:56;;;;;;;12.02;2.67;;;6.00;99.90;;;;;;5071657;28;20050;-67
2023/01/15 05:03:22;;;;;;;8.95;1.50;;;6.00;99.90;;;;;;5070098;28;20048;-67
2023/01/15 05:05:49;;;;;;;11.70;1.60;;;6.00;99.90;;;;;;5070346;28;20048;-66
2023/01/15 05:08:15;;;;;;;7.45;1.60;;;5.90;99.90;;;;;;5070873;28;20045;-64
2023/01/15 05:10:41;;;;;;;12.88;1.83;;;5.90;99.90;;;;;;5071482;28;20116;-65
2023/01/15 05:13:06;;;;;;;13.60;1.83;;;5.80;99.90;;;;;;5051812;28;20186;-65
2023/01/15 05:15:32;;;;;;;13.77;2.13;;;5.80;99.90;;;;;;5070985;28;20040;-64
2023/01/15 05:17:58;;;;;;;10.32;1.70;;;5.80;99.90;;;;;;5054464;28;20047;-67
2023/01/15 05:20:23;;;;;;;12.07;1.88;;;5.80;99.90;;;;;;5070654;28;20464;-63
2023/01/15 05:22:49;;;;;;;12.80;2.00;;;5.80;99.90;;;;;;5070040;28;20045;-66
2023/01/15 05:25:14;;;;;;;9.95;1.38;;;5.80;99.90;;;;;;5070835;28;20043;-66
2023/01/15 05:27:41;;;;;;;9.60;2.22;;;5.80;99.90;;;;;;5070794;28;20060;-66
2023/01/15 05:30:08;;;;;;;15.43;2.35;;;5.80;99.90;;;;;;5070837;28;20052;-66
2023/01/15 05:32:33;;;;;;;10.23;2.13;;;5.80;99.90;;;;;;5070306;28;20081;-66
2023/01/15 05:34:59;;;;;;;10.45;1.48;;;5.80;99.90;;;;;;5069665;28;20044;-65
2023/01/15 05:37:25;;;;;;;9.95;2.55;;;5.80;99.90;;;;;;5070205;28;20051;-68
2023/01/15 05:39:50;;;;;;;10.18;2.08;;;5.80;99.90;;;;;;5070615;28;20407;-63
2023/01/15 05:42:16;;;;;;;10.15;2.10;;;5.80;99.90;;;;;;5070793;28;20048;-64
2023/01/15 05:44:42;;;;;;;8.73;1.60;;;5.80;99.90;;;;;;5066285;28;20072;-64
2023/01/15 05:47:09;;;;;;;10.10;1.48;;;5.80;99.90;;;;;;5070540;28;20063;-66
2023/01/15 05:49:35;;;;;;;7.97;1.70;;;5.80;99.90;;;;;;5071499;28;20491;-65
2023/01/15 05:52:01;;;;;;;13.68;1.60;;;5.80;99.90;;;;;;5070586;28;20485;-65
2023/01/15 05:54:30;;;;;;;14.55;1.77;;;5.70;99.90;;;;;;5064503;28;20037;-65
2023/01/15 05:56:56;;;;;;;12.50;1.63;;;5.80;99.90;;;;;;5086078;28;20040;-66
2023/01/15 05:59:24;;;;;;;9.35;1.50;;;5.70;99.90;;;;;;5070587;28;20051;-66
2023/01/15 06:01:51;;;;;;;12.32;2.00;;;5.70;99.90;;;;;;5069891;28;20097;-64
2023/01/15 06:04:20;;;;;;;9.85;1.95;;;5.70;99.90;;;;;;5070174;28;20052;-65
2023/01/15 06:06:50;;;;;;;10.85;1.58;;;5.70;99.90;;;;;;5066823;28;20056;-68
2023/01/15 06:09:16;;;;;;;9.10;2.03;;;5.70;99.90;;;;;;5068057;28;20049;-66
2023/01/15 06:11:41;;;;;;;13.80;1.90;;;5.60;99.90;;;;;;5069896;28;20048;-64
2023/01/15 06:14:08;;;;;;;10.60;1.83;;;5.70;99.90;;;;;;5053790;28;20127;-65
2023/01/15 06:16:34;;;;;;;11.40;1.80;;;5.60;99.90;;;;;;5068512;28;20037;-67
2023/01/15 06:19:03;;;;;;;9.65;1.60;;;5.60;99.90;;;;;;5069718;28;20033;-69
2023/01/15 06:21:29;;;;;;;13.65;2.40;;;5.50;99.90;;;;;;5071118;28;20398;-68
2023/01/15 06:23:55;;;;;;;12.75;2.17;;;5.50;99.90;;;;;;5069479;28;20045;-65
2023/01/15 06:26:21;;;;;;;13.27;1.83;;;5.50;99.90;;;;;;5068722;28;20505;-64
2023/01/15 06:28:47;;;;;;;8.63;1.83;;;5.60;99.90;;;;;;5085667;28;20437;-66
2023/01/15 06:31:15;;;;;;;11.95;1.98;;;5.50;99.90;;;;;;5069701;28;20036;-66
2023/01/15 06:33:40;;;;;;;10.95;2.25;;;5.50;99.90;;;;;;5069710;28;20422;-68
2023/01/15 06:36:12;;;;;;;12.63;2.10;;;5.50;99.90;;;;;;5068650;28;20044;-65
2023/01/15 06:38:38;;;;;;;11.40;2.13;;;5.40;99.90;;;;;;5051283;28;20040;-67
2023/01/15 06:47:19;;;;;;;10.30;1.92;;;5.40;99.90;;;;;;5064951;28;20286;-64
2023/01/15 06:49:34;;;;;;;14.52;2.70;;;5.30;99.90;;;;;;5068357;28;20037;-67
2023/01/15 06:52:00;;;;;;;10.32;2.38;;;5.30;99.90;;;;;;5068161;28;20041;-64
2023/01/15 06:54:26;;;;;;;8.10;1.38;;;5.30;99.90;;;;;;5069308;28;20500;-68
2023/01/15 06:56:52;;;;;;;10.88;1.92;;;5.30;99.90;;;;;;5069053;28;20411;-66
2023/01/15 06:59:18;;;;;;;12.77;1.63;;;5.20;99.90;;;;;;5065793;28;20040;-65
2023/01/15 07:01:44;;;;;;;9.98;1.40;;;5.20;99.90;;;;;;5067493;28;20499;-66
2023/01/15 07:04:10;;;;;;;10.77;1.40;;;5.20;99.90;;;;;;5065602;28;20040;-68
2023/01/15 07:06:36;;;;;;;9.85;1.73;;;5.20;99.90;;;;;;5068855;28;20056;-65
2023/01/15 07:09:02;;;;;;;11.23;2.25;;;5.20;99.90;;;;;;5068611;28;20048;-65
2023/01/15 07:11:27;;;;;;;10.30;2.83;;;5.20;99.90;;;;;;5070134;28;20029;-67
2023/01/15 07:14:04;;;;;;;12.20;2.05;;;5.30;99.90;;;;;;5068443;28;20040;-65
2023/01/15 07:16:34;;;;;;;10.30;1.27;;;5.20;99.90;;;;;;5069676;28;20086;-67
2023/01/15 07:19:01;;;;;;;8.82;1.42;;;5.20;99.90;;;;;;5068360;28;20071;-67
2023/01/15 07:21:27;;;;;;;11.15;1.50;;;5.20;99.90;;;;;;5068735;28;20040;-64
2023/01/15 07:23:53;;;;;;;9.13;1.58;;;5.20;99.90;;;;;;5068526;28;20041;-67
2023/01/15 07:26:19;;;;;;;6.75;1.67;;;5.20;99.90;;;;;;5066944;28;20090;-64
2023/01/15 07:28:45;;;;;;;8.85;2.15;;;5.20;99.90;;;;;;5052244;28;20407;-68
2023/01/15 07:31:11;;;;;;;7.28;1.55;;;5.20;99.90;;;;;;5068579;28;20418;-71
2023/01/15 07:33:36;;;;;;;8.57;1.80;;;5.10;99.90;;;;;;5063039;28;20094;-67
2023/01/15 07:36:03;;;;;;;8.50;1.55;;;5.20;99.90;;;;;;5047088;28;20049;-68
2023/01/15 07:38:29;;;;;;;7.93;1.55;;;5.10;99.90;;;;;;5063823;28;20037;-68
2023/01/15 07:51:57;;;;;;;6.70;1.55;;;5.00;99.90;;;;;;5073014;28;20490;-69
2023/01/15 07:54:23;;;;;;;8.48;1.35;;;5.00;99.90;;;;;;5072184;28;20041;-65
2023/01/15 07:56:51;;;;;;;8.02;1.20;;;5.00;99.90;;;;;;5073447;28;20055;-65
2023/01/15 07:59:16;;;;;;;8.77;1.55;;;5.00;99.90;;;;;;5066747;28;20392;-65
2023/01/15 08:01:42;;;;;;;11.48;2.03;;;5.00;99.90;;;;;;5072574;28;20134;-64
2023/01/15 08:04:08;;;;;;;9.40;1.80;;;5.00;99.90;;;;;;5072371;28;20045;-65
2023/01/15 08:06:35;;;;;;;10.27;1.58;;;5.00;99.90;;;;;;5071824;28;20056;-67
2023/01/15 08:09:01;;;;;;;10.43;1.15;;;5.00;99.90;;;;;;5071234;28;20048;-65
2023/01/15 08:16:55;;;;;;;5.40;1.15;;;5.00;99.90;;;;;;5072274;28;20055;-67
2023/01/15 08:19:21;;;;;;;8.63;1.70;;;5.00;99.90;;;;;;5070983;28;20433;-67
2023/01/15 08:21:46;;;;;;;11.05;2.05;;;5.00;99.90;;;;;;5071901;28;20074;-65
2023/01/15 08:24:12;;;;;;;10.13;1.60;;;5.00;99.90;;;;;;5071680;28;20044;-65
2023/01/15 08:26:38;;;;;;;11.82;1.70;;;5.00;99.90;;;;;;5071913;28;20067;-65
2023/01/15 08:29:04;;;;;;;8.35;1.70;;;5.10;99.90;;;;;;5070479;28;20033;-65
2023/01/15 08:31:29;;;;;;;13.52;1.88;;;5.10;99.90;;;;;;5065660;28;20552;-67
2023/01/15 08:33:55;;;;;;;9.18;1.42;;;5.20;99.90;;;;;;5072061;28;20060;-67
2023/01/15 08:36:20;;;;;;;9.68;1.40;;;5.20;99.90;;;;;;5071911;28;20064;-65
2023/01/15 08:38:49;;;;;;;9.20;1.73;;;5.20;99.90;;;;;;5054718;28;20473;-67
2023/01/15 08:41:15;;;;;;;14.68;1.50;;;5.20;99.90;;;;;;5053871;28;20036;-65
2023/01/15 08:43:40;;;;;;;10.70;2.28;;;5.20;99.90;;;;;;5071071;28;20407;-64
2023/01/15 08:46:06;;;;;;;13.32;1.85;;;5.30;99.90;;;;;;5071762;28;20033;-64
2023/01/15 08:48:32;;;;;;;15.15;1.58;;;5.30;99.90;;;;;;5054700;28;20376;-65
2023/01/15 08:51:02;;;;;;;9.32;1.55;;;5.30;99.90;;;;;;5069878;28;20070;-65
2023/01/15 08:53:28;;;;;;;12.40;2.00;;;5.40;99.90;;;;;;5071386;28;20036;-66
2023/01/15 08:55:54;;;;;;;9.80;2.10;;;5.30;99.90;;;;;;5071264;28;20040;-67
2023/01/15 08:58:19;;;;;;;4.82;1.45;;;5.20;99.90;;;;;;5071029;28;20040;-67
2023/01/15 09:00:45;;;;;;;5.63;1.33;;;4.90;99.90;;;;;;5071522;28;20145;-67
2023/01/15 09:03:10;;;;;;;6.78;0.73;;;4.60;99.90;;;;;;5070756;28;20182;-69
2023/01/15 09:05:37;;;;;;;6.88;1.30;;;4.20;99.90;;;;;;5070607;28;20084;-67
2023/01/15 09:08:04;;;;;;;7.18;1.50;;;4.00;99.90;;;;;;5071103;28;20154;-67
2023/01/15 09:10:30;;;;;;;6.57;1.30;;;3.80;99.90;;;;;;5071445;28;20068;-64
2023/01/15 09:13:01;;;;;;;8.13;0.95;;;3.80;99.90;;;;;;5068861;28;20114;-67
2023/01/15 09:15:28;;;;;;;9.18;1.52;;;3.80;99.90;;;;;;5071122;28;20120;-66
2023/01/15 09:17:54;;;;;;;8.80;1.17;;;3.80;99.90;;;;;;5070621;28;20514;-65
2023/01/15 09:20:20;;;;;;;7.80;1.15;;;3.80;99.90;;;;;;5071386;28;20050;-67
2023/01/15 09:22:47;;;;;;;15.70;2.40;;;3.80;99.90;;;;;;5070701;28;20044;-68
2023/01/15 09:25:15;;;;;;;11.32;1.30;;;3.80;99.90;;;;;;5070841;28;20044;-68
2023/01/15 09:27:41;;;;;;;8.60;1.48;;;3.70;99.90;;;;;;5054773;28;20044;-66
2023/01/15 09:30:09;;;;;;;12.95;2.10;;;3.70;99.90;;;;;;5071114;28;20037;-68
2023/01/15 09:32:35;;;;;;;9.07;1.00;;;3.70;99.90;;;;;;5070952;28;20044;-66
2023/01/15 09:35:01;;;;;;;9.07;1.63;;;3.80;99.90;;;;;;5070569;28;20041;-66
2023/01/15 09:37:27;;;;;;;12.50;1.83;;;3.90;99.90;;;;;;5071550;28;20483;-66
2023/01/15 09:39:52;;;;;;;11.45;1.40;;;4.00;99.90;;;;;;5071078;28;20098;-66
2023/01/15 09:42:57;;;;;;;11.38;1.60;;;4.10;99.90;;;;;;5070987;28;20048;-65
2023/01/15 09:45:50;;;;;;;7.38;1.25;;;4.20;99.90;;;;;;5012684;28;20054;-68
2023/01/15 09:48:18;;;;;;;8.40;1.27;;;4.30;99.90;;;;;;4935584;29;21432;-66
2023/01/15 09:50:54;;;;;;;8.80;1.50;;;4.40;99.90;;;;;;4951835;29;20551;-67
2023/01/15 09:54:05;;;;;;;11.45;1.27;;;4.50;99.90;;;;;;4933161;29;20118;-67
2023/01/15 09:56:35;;;;;;;13.80;1.73;;;4.50;99.90;;;;;;4892607;29;20528;-66
2023/01/15 09:59:13;;;;;;;9.07;1.95;;;4.50;99.90;;;;;;4863947;29;20059;-64
2023/01/15 10:01:41;;;;;;;12.27;1.75;;;4.40;99.90;;;;;;4874092;29;20087;-68
2023/01/15 10:04:17;;;;;;;9.52;1.38;;;4.40;99.90;;;;;;4874445;29;20092;-68
2023/01/15 10:07:02;;;;;;;10.80;1.70;;;4.40;99.90;;;;;;4860350;29;20053;-67
2023/01/15 10:09:36;;;;;;;9.52;1.33;;;4.50;99.90;;;;;;4871307;29;20049;-67
2023/01/15 10:15:19;;;;;;;10.80;1.98;;;4.50;99.90;;;;;;4859805;29;20070;-69
2023/01/15 10:17:54;;;;;;;9.52;1.83;;;4.50;99.90;;;;;;4872763;29;20060;-68
2023/01/15 10:20:45;;;;;;;9.98;2.17;;;4.50;99.90;;;;;;4875666;29;20076;-67
2023/01/15 10:23:34;;;;;;;10.52;1.63;;;4.50;99.90;;;;;;4895367;29;20067;-66
2023/01/15 10:25:59;;;;;;;10.00;1.88;;;4.50;99.90;;;;;;4973480;28;20123;-67
2023/01/15 10:28:45;;;;;;;10.98;1.67;;;4.60;99.90;;;;;;4973128;28;20046;-66
2023/01/15 10:31:19;;;;;;;9.23;1.90;;;4.70;99.90;;;;;;5043953;28;20044;-67
2023/01/15 10:34:04;;;;;;;11.30;1.70;;;4.80;99.90;;;;;;5069453;28;20049;-65
2023/01/15 10:36:41;;;;;;;9.50;2.03;;;4.80;99.90;;;;;;5069850;28;20048;-70
2023/01/15 10:39:19;;;;;;;8.60;1.52;;;4.90;99.90;;;;;;5068968;28;20048;-69
2023/01/15 10:41:57;;;;;;;10.45;1.88;;;4.90;99.90;;;;;;5067474;28;20051;-68
2023/01/15 10:44:52;;;;;;;9.35;1.48;;;4.90;99.90;;;;;;5052734;28;20043;-67
2023/01/15 10:47:27;;;;;;;8.48;1.60;;;4.90;99.90;;;;;;5064892;28;20075;-65
2023/01/15 10:49:53;;;;;;;13.75;2.00;;;5.00;99.90;;;;;;5066385;28;20080;-68
2023/01/15 10:52:25;;;;;;;9.38;1.50;;;5.00;99.90;;;;;;5068715;28;20098;-66
2023/01/15 10:55:15;;;;;;;11.52;1.90;;;5.00;99.90;;;;;;5069137;28;20049;-67
2023/01/15 10:57:48;;;;;;;13.93;2.75;;;5.10;99.90;;;;;;5069120;28;20098;-66
2023/01/15 11:00:14;;;;;;;10.40;1.52;;;5.10;99.90;;;;;;5067879;28;20140;-67
2023/01/15 11:03:07;;;;;;;13.13;1.95;;;5.20;99.90;;;;;;5068555;28;20048;-67
2023/01/15 11:05:34;;;;;;;16.15;2.42;;;5.30;99.90;;;;;;5068369;28;20052;-67
2023/01/15 11:08:05;;;;;;;17.00;1.90;;;5.40;99.90;;;;;;5069025;28;20041;-66
2023/01/15 11:10:32;;;;;;;10.68;1.50;;;5.50;99.90;;;;;;5068523;28;20040;-66
2023/01/15 11:21:23;;;;;;;16.90;1.50;;;5.90;99.90;;;;;;5068004;28;20143;-65
2023/01/15 11:23:50;;;;;;;8.57;1.52;;;5.80;99.90;;;;;;5068352;28;20044;-67
2023/01/15 11:26:21;;;;;;;13.75;1.55;;;5.90;99.90;;;;;;5051833;28;20089;-65
2023/01/15 11:28:47;;;;;;;9.80;1.45;;;6.10;99.90;;;;;;5068277;28;20078;-65
2023/01/15 11:31:15;;;;;;;12.52;2.10;;;6.30;99.90;;;;;;5067841;28;20040;-66
2023/01/15 11:33:54;;;;;;;10.07;1.63;;;6.50;99.90;;;;;;5067593;28;20044;-68
2023/01/15 11:36:23;;;;;;;8.90;1.55;;;6.40;99.90;;;;;;5067472;28;20534;-64
2023/01/15 11:38:50;;;;;;;12.02;1.80;;;6.50;99.90;;;;;;5051751;28;20056;-66
2023/01/15 11:52:48;;;;;;;10.27;1.60;;;6.80;99.90;;;;;;5029770;28;20044;-65
2023/01/15 11:55:20;;;;;;;10.65;1.92;;;7.20;99.90;;;;;;5030678;28;20060;-66
2023/01/15 11:57:46;;;;;;;11.20;1.45;;;7.00;99.90;;;;;;5030583;28;20041;-67
2023/01/15 12:00:25;;;;;;;10.00;1.80;;;6.80;99.90;;;;;;5030415;28;20067;-67
2023/01/15 12:02:59;;;;;;;8.68;1.35;;;6.70;99.90;;;;;;5030255;28;20057;-65
2023/01/15 12:05:29;;;;;;;11.38;1.40;;;6.60;99.90;;;;;;5013571;28;20041;-64
2023/01/15 12:08:00;;;;;;;14.20;1.95;;;6.50;99.90;;;;;;5030198;28;20056;-67
2023/01/15 12:14:10;;;;;;;11.45;1.65;;;6.40;99.90;;;;;;5030700;28;20071;-67
2023/01/15 12:16:56;;;;;;;14.73;1.77;;;6.60;99.90;;;;;;5029998;28;20033;-70
2023/01/15 12:19:41;;;;;;;10.13;1.55;;;6.70;99.90;;;;;;5045573;28;20168;-69
2023/01/15 12:22:27;;;;;;;11.68;1.92;;;6.70;99.90;;;;;;5060336;28;20102;-68
2023/01/15 12:25:17;;;;;;;9.68;1.45;;;6.70;99.90;;;;;;5066893;28;20041;-65
2023/01/15 12:28:01;;;;;;;8.93;2.10;;;6.70;99.90;;;;;;5066710;28;20033;-68
2023/01/15 12:30:33;;;;;;;7.45;1.48;;;6.90;99.90;;;;;;5084139;28;20075;-65
2023/01/15 12:33:10;;;;;;;7.78;1.27;;;7.00;99.90;;;;;;5068972;28;20083;-67
2023/01/15 12:35:55;;;;;;;11.38;1.67;;;6.90;99.90;;;;;;5071698;28;20076;-69
2023/01/15 12:38:42;;;;;;;12.40;1.77;;;6.80;99.90;;;;;;5068382;28;20037;-66
2023/01/15 12:41:16;;;;;;;8.18;1.30;;;6.90;99.90;;;;;;5069451;28;20074;-66
2023/01/15 12:46:39;;;;;;;8.93;1.58;;;7.30;99.90;;;;;;5071505;28;20509;-67
2023/01/15 12:49:35;;;;;;;9.55;1.70;;;7.10;99.90;;;;;;5070715;28;20032;-67
2023/01/15 12:52:12;;;;;;;12.52;1.65;;;6.90;99.90;;;;;;5087554;28;20044;-67
2023/01/15 12:54:45;;;;;;;6.57;1.42;;;6.70;99.90;;;;;;5071334;28;20502;-69
2023/01/15 12:57:39;;;;;;;8.75;1.23;;;6.40;99.90;;;;;;5070414;28;20045;-65
2023/01/15 13:00:25;;;;;;;7.78;0.98;;;6.20;99.90;;;;;;5067260;28;20572;-69
2023/01/15 13:03:09;;;;;;;13.05;2.05;;;6.10;99.90;;;;;;5071400;28;20540;-65
2023/01/15 13:05:56;;;;;;;7.88;1.38;;;6.00;99.90;;;;;;5070493;28;20044;-66
2023/01/15 13:08:25;;;;;;;13.60;1.85;;;5.90;99.90;;;;;;5071238;28;20075;-65
2023/01/15 13:10:52;;;;;;;8.52;1.55;;;5.90;99.90;;;;;;5066894;28;20036;-67
2023/01/15 13:13:23;;;;;;;12.15;1.67;;;6.20;99.90;;;;;;5069096;28;20360;-68
2023/01/15 13:16:21;;;;;;;10.75;1.30;;;6.40;99.90;;;;;;5071118;28;20424;-69
2023/01/15 13:19:05;;;;;;;14.65;1.58;;;6.40;99.90;;;;;;5067630;28;20048;-65
2023/01/15 13:21:33;;;;;;;8.52;1.60;;;6.50;99.90;;;;;;5070328;28;20079;-63
2023/01/15 13:24:17;;;;;;;10.82;1.60;;;6.50;99.90;;;;;;5070846;28;20049;-63
2023/01/15 13:26:59;;;;;;;17.75;2.63;;;6.50;99.90;;;;;;5071566;28;20182;-64
2023/01/15 13:29:39;;;;;;;9.63;1.38;;;6.40;99.90;;;;;;5071107;28;20040;-65
2023/01/15 13:32:18;;;;;;;13.00;2.05;;;6.40;99.90;;;;;;5070119;28;20107;-65
2023/01/15 13:34:58;;;;;;;8.48;1.65;;;6.40;99.90;;;;;;5069893;28;20093;-64
2023/01/15 13:37:28;;;;;;;13.23;1.52;;;6.60;99.90;;;;;;5053632;28;20060;-64
2023/01/15 13:40:17;;;;;;;12.65;1.70;;;6.80;99.90;;;;;;5071563;28;20044;-64
2023/01/15 13:42:47;;;;;;;10.82;1.58;;;6.90;99.90;;;;;;5066991;28;20519;-63
2023/01/15 13:45:15;;;;;;;10.77;2.03;;;6.90;99.90;;;;;;5070089;28;20166;-62
2023/01/15 13:47:47;;;;;;;9.70;1.50;;;7.00;99.90;;;;;;5070504;28;20483;-64
2023/01/15 13:50:33;;;;;;;;;;;7.00;99.90;;;;;;5070450;28;20032;-66
2023/01/15 13:53:03;;;;;;;11.80;1.63;;;6.90;99.90;;;;;;5070751;28;20341;-62
2023/01/15 13:55:33;;;;;;;11.65;1.70;;;6.80;99.90;;;;;;5069362;28;20044;-62
2023/01/15 13:57:58;;;;;;;10.20;2.25;;;6.70;99.90;;;;;;5071278;28;20085;-63
2023/01/15 14:00:31;;;;;;;11.50;1.75;;;6.70;99.90;;;;;;5071364;28;20108;-63
2023/01/15 14:02:59;;;;;;;7.18;1.80;;;6.60;99.90;;;;;;5069796;28;20475;-66
2023/01/15 14:05:28;;;;;;;8.98;2.05;;;6.60;99.90;;;;;;5069170;28;20044;-64
2023/01/15 14:07:54;;;;;;;7.68;1.63;;;6.60;99.90;;;;;;5052148;28;20499;-65
2023/01/15 14:10:34;;;;;;;7.32;1.10;;;5.60;99.90;;;;;;5070214;28;20395;-63
2023/01/15 14:13:14;;;;;;;3.22;0.90;;;4.90;99.90;;;;;;5069823;28;20052;-63